createdAt,value
2023-05-05T00:00:05.386Z,124.11
2023-05-05T00:01:05.370Z,122.11
2023-05-05T00:02:05.405Z,122.29
2023-05-05T00:03:05.454Z,123.02
2023-05-05T00:04:05.583Z,122.20
2023-05-05T00:05:05.500Z,122.09
2023-05-05T00:06:05.636Z,121.76
2023-05-05T00:07:05.566Z,121.68
2023-05-05T00:08:05.596Z,121.14
2023-05-05T00:09:05.706Z,121.26
2023-05-05T00:10:05.768Z,123.19
2023-05-05T00:11:05.707Z,121.70
2023-05-05T00:12:05.739Z,121.41
2023-05-05T00:13:05.833Z,121.76
2023-05-05T00:14:05.813Z,120.37
2023-05-05T00:15:05.842Z,121.56
2023-05-05T00:16:06.002Z,120.65
2023-05-05T00:17:05.977Z,121.28
2023-05-05T00:18:06.495Z,122.19
2023-05-05T00:19:06.067Z,120.73
2023-05-05T00:20:06.174Z,120.82
2023-05-05T00:21:06.061Z,120.55
2023-05-05T00:22:06.100Z,120.25
2023-05-05T00:23:06.147Z,120.26
2023-05-05T00:24:06.198Z,120.41
2023-05-05T00:25:06.224Z,120.07
2023-05-05T00:26:06.319Z,119.85
2023-05-05T00:27:06.269Z,120.61
2023-05-05T00:28:06.298Z,120.00
2023-05-05T00:29:06.332Z,119.76
2023-05-05T00:30:06.514Z,119.67
2023-05-05T00:31:06.457Z,120.19
2023-05-05T00:32:06.952Z,119.47
2023-05-05T00:33:06.488Z,120.14
2023-05-05T00:34:06.526Z,119.55
2023-05-05T00:35:07.464Z,120.07
2023-05-05T00:36:06.971Z,120.86
2023-05-05T00:37:06.631Z,120.04
2023-05-05T00:38:06.664Z,119.32
2023-05-05T00:39:06.829Z,118.81
2023-05-05T00:40:06.984Z,119.08
2023-05-05T00:41:06.789Z,120.24
2023-05-05T00:42:06.826Z,118.79
2023-05-05T00:43:06.843Z,119.93
2023-05-05T00:44:06.901Z,118.25
2023-05-05T00:45:06.927Z,119.68
2023-05-05T00:46:07.060Z,119.09
2023-05-05T00:47:07.007Z,118.78
2023-05-05T00:48:07.050Z,119.05
2023-05-05T00:49:07.091Z,118.39
2023-05-05T00:50:07.420Z,118.51
2023-05-05T00:51:07.146Z,117.86
2023-05-05T00:52:07.186Z,117.40
2023-05-05T00:53:07.212Z,117.32
2023-05-05T00:54:07.322Z,118.72
2023-05-05T00:55:07.283Z,118.46
2023-05-05T00:56:07.404Z,117.41
2023-05-05T00:57:07.355Z,117.72
2023-05-05T00:58:07.391Z,118.30
2023-05-05T00:59:07.431Z,117.71
2023-05-05T01:00:07.594Z,118.12
2023-05-05T01:01:07.691Z,118.11
2023-05-05T01:02:07.545Z,117.07
2023-05-05T01:03:07.640Z,117.83
2023-05-05T01:04:07.720Z,116.96
2023-05-05T01:05:07.631Z,116.27
2023-05-05T01:06:07.668Z,117.78
2023-05-05T01:07:07.688Z,116.56
2023-05-05T01:08:07.792Z,117.75
2023-05-05T01:09:07.752Z,115.57
2023-05-05T01:10:18.876Z,115.41
2023-05-05T01:11:08.838Z,115.50
2023-05-05T01:12:07.739Z,115.64
2023-05-05T01:13:07.753Z,116.18
2023-05-05T01:14:07.704Z,116.57
2023-05-05T01:15:07.672Z,116.26
2023-05-05T01:16:07.674Z,116.15
2023-05-05T01:17:07.593Z,115.70
2023-05-05T01:18:07.707Z,115.29
2023-05-05T01:19:07.536Z,117.47
2023-05-05T01:20:07.843Z,116.69
2023-05-05T01:21:07.578Z,115.23
2023-05-05T01:22:07.608Z,117.27
2023-05-05T01:23:07.627Z,116.51
2023-05-05T01:24:07.666Z,114.57
2023-05-05T01:25:07.658Z,115.66
2023-05-05T01:26:07.687Z,114.67
2023-05-05T01:27:07.684Z,115.07
2023-05-05T01:28:07.701Z,116.08
2023-05-05T01:29:07.705Z,116.21
2023-05-05T01:30:07.920Z,113.30
2023-05-05T01:31:07.728Z,115.17
2023-05-05T01:32:07.718Z,114.13
2023-05-05T01:33:07.724Z,115.46
2023-05-05T01:34:07.773Z,115.87
2023-05-05T01:35:07.762Z,115.08
2023-05-05T01:36:07.789Z,114.88
2023-05-05T01:37:07.809Z,115.11
2023-05-05T01:38:07.838Z,114.51
2023-05-05T01:39:07.854Z,113.43
2023-05-05T01:40:08.149Z,114.34
2023-05-05T01:41:07.908Z,113.66
2023-05-05T01:42:07.932Z,116.23
2023-05-05T01:43:08.054Z,113.64
2023-05-05T01:44:07.998Z,115.30
2023-05-05T01:45:08.007Z,114.78
2023-05-05T01:46:08.563Z,116.34
2023-05-05T01:47:08.089Z,115.00
2023-05-05T01:48:08.128Z,115.42
2023-05-05T01:49:08.161Z,115.38
2023-05-05T01:50:08.437Z,116.04
2023-05-05T01:51:08.231Z,115.24
2023-05-05T01:52:08.270Z,115.88
2023-05-05T01:53:08.310Z,116.48
2023-05-05T01:54:08.336Z,116.19
2023-05-05T01:55:08.390Z,115.85
2023-05-05T01:56:08.443Z,114.71
2023-05-05T01:57:08.463Z,115.77
2023-05-05T01:58:08.489Z,114.82
2023-05-05T01:59:08.539Z,114.83
2023-05-05T02:00:08.770Z,115.02
2023-05-05T02:01:08.639Z,115.26
2023-05-05T02:02:08.611Z,114.81
2023-05-05T02:03:08.703Z,114.14
2023-05-05T02:04:08.651Z,113.56
2023-05-05T02:05:08.674Z,114.99
2023-05-05T02:06:08.725Z,115.10
2023-05-05T02:07:08.775Z,113.55
2023-05-05T02:08:08.786Z,114.18
2023-05-05T02:09:08.814Z,115.36
2023-05-05T02:10:09.069Z,115.58
2023-05-05T02:11:08.889Z,115.09
2023-05-05T02:12:08.927Z,114.27
2023-05-05T02:13:09.082Z,114.36
2023-05-05T02:14:09.046Z,115.08
2023-05-05T02:15:09.023Z,113.72
2023-05-05T02:16:09.115Z,114.08
2023-05-05T02:17:09.079Z,114.77
2023-05-05T02:18:09.113Z,113.37
2023-05-05T02:19:09.143Z,113.53
2023-05-05T02:20:09.304Z,113.80
2023-05-05T02:21:09.215Z,113.98
2023-05-05T02:22:09.265Z,114.59
2023-05-05T02:23:09.301Z,114.20
2023-05-05T02:24:09.995Z,113.66
2023-05-05T02:25:09.359Z,115.19
2023-05-05T02:26:09.351Z,113.51
2023-05-05T02:27:09.375Z,114.72
2023-05-05T02:28:09.457Z,114.47
2023-05-05T02:29:09.417Z,114.56
2023-05-05T02:30:09.734Z,115.42
2023-05-05T02:31:09.551Z,114.40
2023-05-05T02:32:09.480Z,114.33
2023-05-05T02:33:09.531Z,115.14
2023-05-05T02:34:09.525Z,112.88
2023-05-05T02:35:09.519Z,113.32
2023-05-05T02:36:09.532Z,113.98
2023-05-05T02:37:09.521Z,115.55
2023-05-05T02:38:09.556Z,112.36
2023-05-05T02:39:09.588Z,113.93
2023-05-05T02:40:09.798Z,114.04
2023-05-05T02:41:09.647Z,113.36
2023-05-05T02:42:09.650Z,113.70
2023-05-05T02:43:09.711Z,113.16
2023-05-05T02:44:09.720Z,112.53
2023-05-05T02:45:09.785Z,113.76
2023-05-05T02:46:09.763Z,113.53
2023-05-05T02:47:09.794Z,112.72
2023-05-05T02:48:09.816Z,114.60
2023-05-05T02:49:09.854Z,113.64
2023-05-05T02:50:10.191Z,112.78
2023-05-05T02:51:09.924Z,113.74
2023-05-05T02:52:09.947Z,113.13
2023-05-05T02:53:10.034Z,112.13
2023-05-05T02:54:10.010Z,112.69
2023-05-05T02:55:10.041Z,113.21
2023-05-05T02:56:10.065Z,112.85
2023-05-05T02:57:11.014Z,112.41
2023-05-05T02:58:10.100Z,112.99
2023-05-05T02:59:10.137Z,113.70
2023-05-05T03:00:10.291Z,112.22
2023-05-05T03:01:10.158Z,113.79
2023-05-05T03:02:10.156Z,112.62
2023-05-05T03:03:10.262Z,112.40
2023-05-05T03:04:10.197Z,112.62
2023-05-05T03:05:10.211Z,112.62
2023-05-05T03:06:10.232Z,113.46
2023-05-05T03:07:10.250Z,112.43
2023-05-05T03:08:10.297Z,111.94
2023-05-05T03:09:10.294Z,113.18
2023-05-05T03:10:10.400Z,113.02
2023-05-05T03:11:10.334Z,113.10
2023-05-05T03:12:10.351Z,112.78
2023-05-05T03:13:10.659Z,112.42
2023-05-05T03:14:11.017Z,112.56
2023-05-05T03:15:10.447Z,112.90
2023-05-05T03:16:10.535Z,111.63
2023-05-05T03:17:11.524Z,112.29
2023-05-05T03:18:10.578Z,112.03
2023-05-05T03:19:10.609Z,112.57
2023-05-05T03:20:10.650Z,113.25
2023-05-05T03:21:10.687Z,112.40
2023-05-05T03:22:10.731Z,112.16
2023-05-05T03:23:10.731Z,112.71
2023-05-05T03:24:10.772Z,111.29
2023-05-05T03:25:11.021Z,111.68
2023-05-05T03:26:10.937Z,112.02
2023-05-05T03:27:10.872Z,112.42
2023-05-05T03:28:10.900Z,112.85
2023-05-05T03:29:10.913Z,111.89
2023-05-05T03:30:11.005Z,110.54
2023-05-05T03:31:10.985Z,112.64
2023-05-05T03:32:11.017Z,110.48
2023-05-05T03:33:10.995Z,110.83
2023-05-05T03:34:11.040Z,112.75
2023-05-05T03:35:11.034Z,110.44
2023-05-05T03:36:12.021Z,110.85
2023-05-05T03:37:11.023Z,111.74
2023-05-05T03:38:11.083Z,111.45
2023-05-05T03:39:11.016Z,112.11
2023-05-05T03:40:11.522Z,112.95
2023-05-05T03:41:10.978Z,112.68
2023-05-05T03:42:10.964Z,111.10
2023-05-05T03:43:10.966Z,111.59
2023-05-05T03:44:10.952Z,111.07
2023-05-05T03:45:10.931Z,111.19
2023-05-05T03:46:10.944Z,109.94
2023-05-05T03:47:10.870Z,110.16
2023-05-05T03:48:10.857Z,109.89
2023-05-05T03:49:10.832Z,109.50
2023-05-05T03:50:10.781Z,110.86
2023-05-05T03:51:10.759Z,109.54
2023-05-05T03:52:11.740Z,109.40
2023-05-05T03:53:10.720Z,109.35
2023-05-05T03:54:10.666Z,111.34
2023-05-05T03:55:10.663Z,110.51
2023-05-05T03:56:10.639Z,110.78
2023-05-05T03:57:10.696Z,110.85
2023-05-05T03:58:10.573Z,109.77
2023-05-05T03:59:10.605Z,108.30
2023-05-05T04:00:10.546Z,109.10
2023-05-05T04:01:10.482Z,109.78
2023-05-05T04:02:10.471Z,110.84
2023-05-05T04:03:10.769Z,109.70
2023-05-05T04:04:10.405Z,108.07
2023-05-05T04:05:10.343Z,109.21
2023-05-05T04:06:10.534Z,109.03
2023-05-05T04:07:10.276Z,109.59
2023-05-05T04:08:10.243Z,110.18
2023-05-05T04:09:10.269Z,109.85
2023-05-05T04:10:10.284Z,108.80
2023-05-05T04:11:10.146Z,108.56
2023-05-05T04:12:10.112Z,109.98
2023-05-05T04:13:10.107Z,109.84
2023-05-05T04:14:10.059Z,109.80
2023-05-05T04:15:10.030Z,107.91
2023-05-05T04:16:10.014Z,108.73
2023-05-05T04:17:09.949Z,110.48
2023-05-05T04:18:10.076Z,110.90
2023-05-05T04:19:09.902Z,108.27
2023-05-05T04:20:10.143Z,109.03
2023-05-05T04:21:09.829Z,108.98
2023-05-05T04:22:09.795Z,110.26
2023-05-05T04:23:09.793Z,107.83
2023-05-05T04:24:09.798Z,109.78
2023-05-05T04:25:09.759Z,110.46
2023-05-05T04:26:09.727Z,110.36
2023-05-05T04:27:09.706Z,109.24
2023-05-05T04:28:09.661Z,108.63
2023-05-05T04:29:09.615Z,109.78
2023-05-05T04:30:09.732Z,108.69
2023-05-05T04:31:09.582Z,109.62
2023-05-05T04:32:09.524Z,109.31
2023-05-05T04:33:09.498Z,108.74
2023-05-05T04:34:09.474Z,108.38
2023-05-05T04:35:09.437Z,106.75
2023-05-05T04:36:09.404Z,107.23
2023-05-05T04:37:09.383Z,108.51
2023-05-05T04:38:09.552Z,108.57
2023-05-05T04:39:09.316Z,107.08
2023-05-05T04:40:09.564Z,107.79
2023-05-05T04:41:09.278Z,107.66
2023-05-05T04:42:09.220Z,107.72
2023-05-05T04:43:09.190Z,107.41
2023-05-05T04:44:10.062Z,108.12
2023-05-05T04:45:09.182Z,107.85
2023-05-05T04:46:09.114Z,106.26
2023-05-05T04:47:09.072Z,106.34
2023-05-05T04:48:09.048Z,107.79
2023-05-05T04:49:08.997Z,107.01
2023-05-05T04:50:09.175Z,106.77
2023-05-05T04:51:08.956Z,107.04
2023-05-05T04:52:08.915Z,106.55
2023-05-05T04:53:08.902Z,106.54
2023-05-05T04:54:08.859Z,106.84
2023-05-05T04:55:08.851Z,107.27
2023-05-05T04:56:08.859Z,106.92
2023-05-05T04:57:09.553Z,106.14
2023-05-05T04:58:08.771Z,106.82
2023-05-05T04:59:08.771Z,104.79
2023-05-05T05:00:09.003Z,106.08
2023-05-05T05:01:08.694Z,105.83
2023-05-05T05:02:08.697Z,105.84
2023-05-05T05:03:08.779Z,106.83
2023-05-05T05:04:08.621Z,107.51
2023-05-05T05:05:08.692Z,104.57
2023-05-05T05:06:08.613Z,104.06
2023-05-05T05:07:08.601Z,104.22
2023-05-05T05:08:08.604Z,104.51
2023-05-05T05:09:08.563Z,104.73
2023-05-05T05:10:08.720Z,105.18
2023-05-05T05:11:08.547Z,106.09
2023-05-05T05:12:08.513Z,103.94
2023-05-05T05:13:09.632Z,104.68
2023-05-05T05:14:08.472Z,104.92
2023-05-05T05:15:08.477Z,104.92
2023-05-05T05:16:08.421Z,103.45
2023-05-05T05:17:08.360Z,103.22
2023-05-05T05:18:08.350Z,98.65
2023-05-05T05:19:08.281Z,77.23
2023-05-05T05:20:08.477Z,71.38
2023-05-05T05:21:08.222Z,72.29
2023-05-05T05:22:08.196Z,68.17
2023-05-05T05:23:08.152Z,64.55
2023-05-05T05:24:08.178Z,65.79
2023-05-05T05:25:08.111Z,63.18
2023-05-05T05:26:08.064Z,62.73
2023-05-05T05:27:09.838Z,57.12
2023-05-05T05:28:10.741Z,57.23
2023-05-05T05:29:08.033Z,56.70
2023-05-05T05:30:08.078Z,52.67
2023-05-05T05:31:08.563Z,47.31
2023-05-05T05:32:07.952Z,47.04
2023-05-05T05:33:07.929Z,42.99
2023-05-05T05:34:09.366Z,24.46
2023-05-05T05:35:07.826Z,10.64
2023-05-05T05:36:07.816Z,0.00
2023-05-05T05:37:07.796Z,0.00
2023-05-05T05:38:07.765Z,0.00
2023-05-05T05:39:07.751Z,0.00
2023-05-05T05:40:07.938Z,0.00
2023-05-05T05:41:07.727Z,0.00
2023-05-05T05:42:07.708Z,0.00
2023-05-05T05:43:07.708Z,4.83
2023-05-05T05:44:07.693Z,12.44
2023-05-05T05:45:07.683Z,22.24
2023-05-05T05:46:09.382Z,25.80
2023-05-05T05:47:07.650Z,25.26
2023-05-05T05:48:07.652Z,25.00
2023-05-05T05:49:07.667Z,25.06
2023-05-05T05:50:07.892Z,25.00
2023-05-05T05:51:07.597Z,26.72
2023-05-05T05:52:07.571Z,26.19
2023-05-05T05:53:07.542Z,26.65
2023-05-05T05:54:07.523Z,25.00
2023-05-05T05:55:07.522Z,25.00
2023-05-05T05:56:07.496Z,25.88
2023-05-05T05:57:07.515Z,26.62
2023-05-05T05:58:07.531Z,27.35
2023-05-05T05:59:07.575Z,27.26
2023-05-05T06:00:07.966Z,26.28
2023-05-05T06:01:07.647Z,26.32
2023-05-05T06:02:07.750Z,26.03
2023-05-05T06:03:08.040Z,24.72
2023-05-05T06:04:07.970Z,25.65
2023-05-05T06:05:07.814Z,27.22
2023-05-05T06:06:07.875Z,25.26
2023-05-05T06:07:07.974Z,25.00
2023-05-05T06:08:07.967Z,25.67
2023-05-05T06:09:08.001Z,25.32
2023-05-05T06:10:22.816Z,26.01
2023-05-05T06:11:09.031Z,24.52
2023-05-05T06:12:08.014Z,21.81
2023-05-05T06:13:08.097Z,21.52
2023-05-05T06:14:07.984Z,20.71
2023-05-05T06:15:07.961Z,20.62
2023-05-05T06:16:08.014Z,25.00
2023-05-05T06:17:07.921Z,25.08
2023-05-05T06:18:07.918Z,25.61
2023-05-05T06:19:07.917Z,25.61
2023-05-05T06:20:08.079Z,26.27
2023-05-05T06:21:08.067Z,26.06
2023-05-05T06:22:08.041Z,27.74
2023-05-05T06:23:08.105Z,28.04
2023-05-05T06:24:08.094Z,27.88
2023-05-05T06:25:08.178Z,30.94
2023-05-05T06:26:08.170Z,28.99
2023-05-05T06:27:08.582Z,33.87
2023-05-05T06:28:08.217Z,36.59
2023-05-05T06:29:09.134Z,40.66
2023-05-05T06:30:08.506Z,45.09
2023-05-05T06:31:08.238Z,48.42
2023-05-05T06:32:08.236Z,54.15
2023-05-05T06:33:08.266Z,58.74
2023-05-05T06:34:08.162Z,63.05
2023-05-05T06:35:08.137Z,68.25
2023-05-05T06:36:08.110Z,70.19
2023-05-05T06:37:08.064Z,71.97
2023-05-05T06:38:08.056Z,76.15
2023-05-05T06:39:08.100Z,80.42
2023-05-05T06:40:08.314Z,83.95
2023-05-05T06:41:08.179Z,88.10
2023-05-05T06:42:08.202Z,91.56
2023-05-05T06:43:08.230Z,94.82
2023-05-05T06:44:08.261Z,97.84
2023-05-05T06:45:08.277Z,101.78
2023-05-05T06:46:08.318Z,104.49
2023-05-05T06:47:08.358Z,108.55
2023-05-05T06:48:08.445Z,110.85
2023-05-05T06:49:08.322Z,112.96
2023-05-05T06:50:08.508Z,116.43
2023-05-05T06:51:08.353Z,118.77
2023-05-05T06:52:08.391Z,123.20
2023-05-05T06:53:08.413Z,126.49
2023-05-05T06:54:08.392Z,130.00
2023-05-05T06:55:08.338Z,132.21
2023-05-05T06:56:08.330Z,135.69
2023-05-05T06:57:08.313Z,137.59
2023-05-05T06:58:08.330Z,140.25
2023-05-05T06:59:08.280Z,142.10
2023-05-05T07:00:08.445Z,144.53
2023-05-05T07:01:08.268Z,149.39
2023-05-05T07:02:08.229Z,153.33
2023-05-05T07:03:08.214Z,158.23
2023-05-05T07:04:08.221Z,161.36
2023-05-05T07:05:08.153Z,162.67
2023-05-05T07:06:08.151Z,165.38
2023-05-05T07:07:08.084Z,167.62
2023-05-05T07:08:08.036Z,169.98
2023-05-05T07:09:08.240Z,173.18
2023-05-05T07:10:08.030Z,175.05
2023-05-05T07:11:08.149Z,177.64
2023-05-05T07:12:07.927Z,180.77
2023-05-05T07:13:07.940Z,183.67
2023-05-05T07:14:07.844Z,187.29
2023-05-05T07:15:23.466Z,190.79
2023-05-05T07:16:08.777Z,190.95
2023-05-05T07:17:07.710Z,191.72
2023-05-05T07:18:07.699Z,193.89
2023-05-05T07:19:07.632Z,196.99
2023-05-05T07:20:07.925Z,193.82
2023-05-05T07:21:07.537Z,193.79
2023-05-05T07:22:07.493Z,185.99
2023-05-05T07:23:07.449Z,187.02
2023-05-05T07:24:07.410Z,187.98
2023-05-05T07:25:07.449Z,188.89
2023-05-05T07:26:07.397Z,189.84
2023-05-05T07:27:07.361Z,192.02
2023-05-05T07:28:07.269Z,193.44
2023-05-05T07:29:07.614Z,195.03
2023-05-05T07:30:12.387Z,197.30
2023-05-05T07:31:08.131Z,197.45
2023-05-05T07:32:07.132Z,198.25
2023-05-05T07:33:07.123Z,200.15
2023-05-05T07:34:07.020Z,203.49
2023-05-05T07:35:06.965Z,209.14
2023-05-05T07:36:06.937Z,213.01
2023-05-05T07:37:06.878Z,214.77
2023-05-05T07:38:07.717Z,217.14
2023-05-05T07:39:06.811Z,219.26
2023-05-05T07:40:07.148Z,221.21
2023-05-05T07:41:06.814Z,223.52
2023-05-05T07:42:06.675Z,225.90
2023-05-05T07:43:06.633Z,227.19
2023-05-05T07:44:06.581Z,229.11
2023-05-05T07:45:06.598Z,231.66
2023-05-05T07:46:06.533Z,233.87
2023-05-05T07:47:06.452Z,233.99
2023-05-05T07:48:07.169Z,234.57
2023-05-05T07:49:06.357Z,236.05
2023-05-05T07:50:06.703Z,238.94
2023-05-05T07:51:06.267Z,243.40
2023-05-05T07:52:06.236Z,245.48
2023-05-05T07:53:14.471Z,246.71
2023-05-05T07:54:07.130Z,246.80
2023-05-05T07:55:06.088Z,247.40
2023-05-05T07:56:06.042Z,248.71
2023-05-05T07:57:06.128Z,251.25
2023-05-05T07:58:05.950Z,255.16
2023-05-05T07:59:05.930Z,250.00
2023-05-05T08:00:06.049Z,250.00
2023-05-05T08:01:06.572Z,250.00
2023-05-05T08:02:05.888Z,250.00
2023-05-05T08:03:07.054Z,250.00
2023-05-05T08:04:06.234Z,249.81
2023-05-05T08:05:06.099Z,249.81
2023-05-05T08:06:05.874Z,249.86
2023-05-05T08:07:05.873Z,250.00
2023-05-05T08:08:05.883Z,249.83
2023-05-05T08:09:05.852Z,249.74
2023-05-05T08:10:05.867Z,250.00
2023-05-05T08:11:05.921Z,250.00
2023-05-05T08:12:05.858Z,250.00
2023-05-05T08:13:05.949Z,249.82
2023-05-05T08:14:05.838Z,249.83
2023-05-05T08:15:06.013Z,249.18
2023-05-05T08:16:05.949Z,236.72
2023-05-05T08:17:05.802Z,224.01
2023-05-05T08:18:05.867Z,211.99
2023-05-05T08:19:14.508Z,201.30
2023-05-05T08:20:06.769Z,194.64
2023-05-05T08:21:05.723Z,193.27
2023-05-05T08:22:05.676Z,195.07
2023-05-05T08:23:05.649Z,196.08
2023-05-05T08:24:05.600Z,196.52
2023-05-05T08:25:05.642Z,196.07
2023-05-05T08:26:05.518Z,195.98
2023-05-05T08:27:05.478Z,196.35
2023-05-05T08:28:06.135Z,196.56
2023-05-05T08:29:05.536Z,197.20
2023-05-05T08:30:05.496Z,197.46
2023-05-05T08:31:05.603Z,197.83
2023-05-05T08:32:05.544Z,197.83
2023-05-05T08:33:05.624Z,198.79
2023-05-05T08:34:05.643Z,198.46
2023-05-05T08:35:05.744Z,198.24
2023-05-05T08:36:06.637Z,198.49
2023-05-05T08:37:05.679Z,198.77
2023-05-05T08:38:05.736Z,198.59
2023-05-05T08:39:05.747Z,199.02
2023-05-05T08:40:05.843Z,198.94
2023-05-05T08:41:05.799Z,199.13
2023-05-05T08:42:06.158Z,199.32
2023-05-05T08:43:05.854Z,199.59
2023-05-05T08:44:05.868Z,200.03
2023-05-05T08:45:06.278Z,200.09
2023-05-05T08:46:05.853Z,200.20
2023-05-05T08:47:05.979Z,200.23
2023-05-05T08:48:05.838Z,200.39
2023-05-05T08:49:05.775Z,200.63
2023-05-05T08:50:05.731Z,201.00
2023-05-05T08:51:05.815Z,200.42
2023-05-05T08:52:05.693Z,200.78
2023-05-05T08:53:05.712Z,200.49
2023-05-05T08:54:05.657Z,201.10
2023-05-05T08:55:05.721Z,201.11
2023-05-05T08:56:05.603Z,201.18
2023-05-05T08:57:05.573Z,201.27
2023-05-05T08:58:05.548Z,201.76
2023-05-05T08:59:05.520Z,201.58
2023-05-05T09:00:05.508Z,201.84
2023-05-05T09:01:05.654Z,201.42
2023-05-05T09:02:06.174Z,201.95
2023-05-05T09:03:05.566Z,201.75
2023-05-05T09:04:05.427Z,201.85
2023-05-05T09:05:05.528Z,202.04
2023-05-05T09:06:05.345Z,202.01
2023-05-05T09:07:05.343Z,201.95
2023-05-05T09:08:05.281Z,201.98
2023-05-05T09:09:06.138Z,202.72
2023-05-05T09:10:05.220Z,202.53
2023-05-05T09:11:05.171Z,201.90
2023-05-05T09:12:05.147Z,202.62
2023-05-05T09:13:05.160Z,202.57
2023-05-05T09:14:05.058Z,202.53
2023-05-05T09:15:05.337Z,202.35
2023-05-05T09:16:04.994Z,202.53
2023-05-05T09:17:05.105Z,202.70
2023-05-05T09:18:05.000Z,203.05
2023-05-05T09:19:04.908Z,202.91
2023-05-05T09:20:04.910Z,194.50
2023-05-05T09:21:04.825Z,178.59
2023-05-05T09:22:04.905Z,178.76
2023-05-05T09:23:04.777Z,181.41
2023-05-05T09:24:08.177Z,180.79
2023-05-05T09:25:04.794Z,180.81
2023-05-05T09:26:04.680Z,180.84
2023-05-05T09:27:04.633Z,180.82
2023-05-05T09:28:05.174Z,180.68
2023-05-05T09:29:04.607Z,180.95
2023-05-05T09:30:04.519Z,181.25
2023-05-05T09:31:04.501Z,182.29
2023-05-05T09:32:04.441Z,182.94
2023-05-05T09:33:04.528Z,183.31
2023-05-05T09:34:04.402Z,179.38
2023-05-05T09:35:04.353Z,176.68
2023-05-05T09:36:04.289Z,176.57
2023-05-05T09:37:04.267Z,177.46
2023-05-05T09:38:04.237Z,177.34
2023-05-05T09:39:04.173Z,177.77
2023-05-05T09:40:04.137Z,178.31
2023-05-05T09:41:04.131Z,177.82
2023-05-05T09:42:04.170Z,176.38
2023-05-05T09:43:04.047Z,176.92
2023-05-05T09:44:04.043Z,176.02
2023-05-05T09:45:04.137Z,175.11
2023-05-05T09:46:05.108Z,172.61
2023-05-05T09:47:09.341Z,173.45
2023-05-05T09:48:05.133Z,173.56
2023-05-05T09:49:04.164Z,173.99
2023-05-05T09:50:04.009Z,174.09
2023-05-05T09:51:04.651Z,172.81
2023-05-05T09:52:03.926Z,172.67
2023-05-05T09:53:03.917Z,175.64
2023-05-05T09:54:03.842Z,177.48
2023-05-05T09:55:03.809Z,177.41
2023-05-05T09:56:03.877Z,177.00
2023-05-05T09:57:03.805Z,175.45
2023-05-05T09:58:04.610Z,173.65
2023-05-05T09:59:03.844Z,171.52
2023-05-05T10:00:04.008Z,170.69
2023-05-05T10:01:03.872Z,171.68
2023-05-05T10:02:03.896Z,173.19
2023-05-05T10:03:04.229Z,174.76
2023-05-05T10:04:03.930Z,176.36
2023-05-05T10:05:04.912Z,174.60
2023-05-05T10:06:04.586Z,171.98
2023-05-05T10:07:04.760Z,172.12
2023-05-05T10:08:04.027Z,175.71
2023-05-05T10:09:03.992Z,173.48
2023-05-05T10:10:04.009Z,174.07
2023-05-05T10:11:04.043Z,173.99
2023-05-05T10:12:04.035Z,177.90
2023-05-05T10:13:04.134Z,180.69
2023-05-05T10:14:04.098Z,180.85
2023-05-05T10:15:04.023Z,184.45
2023-05-05T10:16:04.046Z,187.00
2023-05-05T10:17:04.654Z,188.33
2023-05-05T10:18:07.799Z,189.84
2023-05-05T10:19:03.971Z,189.95
2023-05-05T10:20:03.934Z,190.10
2023-05-05T10:21:04.027Z,190.59
2023-05-05T10:22:03.844Z,191.60
2023-05-05T10:23:03.815Z,194.57
2023-05-05T10:24:03.827Z,196.84
2023-05-05T10:25:03.728Z,198.82
2023-05-05T10:26:03.677Z,201.66
2023-05-05T10:27:03.632Z,202.00
2023-05-05T10:28:03.590Z,203.73
2023-05-05T10:29:03.558Z,204.75
2023-05-05T10:30:03.525Z,205.92
2023-05-05T10:31:07.825Z,207.71
2023-05-05T10:32:16.304Z,207.84
2023-05-05T10:33:18.226Z,207.91
2023-05-05T10:34:05.474Z,208.00
2023-05-05T10:35:03.298Z,208.02
2023-05-05T10:36:03.289Z,208.79
2023-05-05T10:37:03.324Z,209.94
2023-05-05T10:38:03.172Z,211.97
2023-05-05T10:39:03.171Z,212.18
2023-05-05T10:40:03.196Z,210.90
2023-05-05T10:41:03.052Z,208.08
2023-05-05T10:42:03.676Z,207.71
2023-05-05T10:43:02.963Z,210.16
2023-05-05T10:44:04.594Z,211.53
2023-05-05T10:45:03.622Z,213.23
2023-05-05T10:46:02.962Z,213.61
2023-05-05T10:47:02.807Z,215.71
2023-05-05T10:48:02.863Z,217.33
2023-05-05T10:49:02.739Z,218.59
2023-05-05T10:50:02.693Z,209.17
2023-05-05T10:51:02.668Z,210.05
2023-05-05T10:52:02.709Z,211.91
2023-05-05T10:53:02.629Z,210.53
2023-05-05T10:54:02.597Z,212.52
2023-05-05T10:55:03.173Z,209.97
2023-05-05T10:56:02.515Z,211.77
2023-05-05T10:57:02.476Z,214.34
2023-05-05T10:58:02.446Z,217.44
2023-05-05T10:59:02.430Z,214.92
2023-05-05T11:00:02.411Z,216.73
2023-05-05T11:01:02.447Z,220.46
2023-05-05T11:02:02.354Z,223.32
2023-05-05T11:03:02.415Z,228.36
2023-05-05T11:04:02.407Z,228.27
2023-05-05T11:05:02.802Z,225.91
2023-05-05T11:06:02.259Z,226.05
2023-05-05T11:07:02.237Z,226.48
2023-05-05T11:08:02.222Z,226.43
2023-05-05T11:09:02.247Z,227.97
2023-05-05T11:10:02.149Z,229.22
2023-05-05T11:11:02.155Z,229.51
2023-05-05T11:12:02.051Z,229.70
2023-05-05T11:13:02.083Z,230.69
2023-05-05T11:14:01.972Z,231.70
2023-05-05T11:15:01.937Z,232.32
2023-05-05T11:16:01.909Z,232.25
2023-05-05T11:17:02.020Z,233.41
2023-05-05T11:18:04.883Z,233.61
2023-05-05T11:19:02.691Z,233.66
2023-05-05T11:20:01.747Z,233.89
2023-05-05T11:21:01.697Z,234.25
2023-05-05T11:22:01.731Z,234.16
2023-05-05T11:23:01.616Z,235.27
2023-05-05T11:24:01.564Z,235.97
2023-05-05T11:25:01.565Z,236.39
2023-05-05T11:26:01.459Z,235.00
2023-05-05T11:27:01.417Z,235.75
2023-05-05T11:28:01.388Z,236.27
2023-05-05T11:29:01.333Z,236.74
2023-05-05T11:30:01.321Z,237.06
2023-05-05T11:31:01.375Z,236.74
2023-05-05T11:32:01.230Z,236.91
2023-05-05T11:33:01.208Z,236.76
2023-05-05T11:34:01.109Z,236.63
2023-05-05T11:35:01.071Z,236.34
2023-05-05T11:36:01.850Z,236.63
2023-05-05T11:37:01.006Z,237.70
2023-05-05T11:38:00.982Z,237.34
2023-05-05T11:39:00.948Z,237.38
2023-05-05T11:40:00.939Z,236.55
2023-05-05T11:41:00.951Z,236.82
2023-05-05T11:42:03.384Z,237.07
2023-05-05T11:43:01.840Z,237.12
2023-05-05T11:44:00.767Z,237.25
2023-05-05T11:45:01.107Z,237.26
2023-05-05T11:46:00.730Z,236.66
2023-05-05T11:47:00.685Z,236.61
2023-05-05T11:48:01.332Z,236.35
2023-05-05T11:49:01.193Z,236.81
2023-05-05T11:50:00.543Z,236.44
2023-05-05T11:51:00.439Z,236.33
2023-05-05T11:52:00.494Z,236.26
2023-05-05T11:53:00.362Z,236.21
2023-05-05T11:54:00.298Z,236.32
2023-05-05T11:55:00.338Z,235.67
2023-05-05T11:56:00.204Z,235.63
2023-05-05T11:57:00.174Z,235.49
2023-05-05T11:58:00.126Z,235.87
2023-05-05T11:59:00.063Z,235.87
2023-05-05T12:00:00.003Z,234.94
2023-05-05T12:01:00.028Z,235.26
2023-05-05T12:01:59.902Z,235.64
2023-05-05T12:02:59.922Z,235.38
2023-05-05T12:03:59.927Z,234.01
2023-05-05T12:04:59.831Z,235.09
2023-05-05T12:05:59.754Z,234.60
2023-05-05T12:06:59.669Z,234.63
2023-05-05T12:07:59.758Z,234.21
2023-05-05T12:08:59.568Z,234.24
2023-05-05T12:09:59.514Z,233.71
2023-05-05T12:10:59.469Z,234.47
2023-05-05T12:11:59.422Z,234.36
2023-05-05T12:13:00.256Z,233.89
2023-05-05T12:13:59.331Z,234.26
2023-05-05T12:14:59.301Z,232.82
2023-05-05T12:15:59.259Z,234.01
2023-05-05T12:16:59.177Z,233.62
2023-05-05T12:18:01.443Z,233.03
2023-05-05T12:18:59.082Z,233.83
2023-05-05T12:19:59.051Z,233.89
2023-05-05T12:20:59.000Z,232.13
2023-05-05T12:21:58.948Z,232.28
2023-05-05T12:22:58.910Z,232.45
2023-05-05T12:23:58.874Z,232.86
2023-05-05T12:24:58.798Z,232.52
2023-05-05T12:25:58.757Z,231.54
2023-05-05T12:26:58.704Z,232.61
2023-05-05T12:27:58.652Z,231.29
2023-05-05T12:28:58.622Z,232.42
2023-05-05T12:29:58.560Z,231.97
2023-05-05T12:30:58.541Z,231.05